Time;durP1;ratioP1;P1;durP2;ratioP2;P2;SDS_P1;SDS_P2;PMS_P1;PMS_P2;Temp;Humidity;BMP_temperature;BMP_pressure;BME280_temperature;BME280_humidity;BME280_pressure;Samples;Min_cycle;Max_cycle;Signal;HPM_P1;HPM_P2
2021/09/05 00:01:16;;;;;;;2.58;1.20;;;19.50;47.10;;;;;;5057595;28;20155;-84
2021/09/05 00:03:44;;;;;;;1.70;1.23;;;19.50;47.20;;;;;;5056062;28;20206;-82
2021/09/05 00:06:12;;;;;;;1.40;1.30;;;19.50;47.20;;;;;;5040468;28;20545;-82
2021/09/05 00:08:41;;;;;;;1.45;1.10;;;19.50;47.20;;;;;;5040537;28;20178;-81
2021/09/05 00:11:10;;;;;;;1.63;1.17;;;19.50;47.20;;;;;;5072997;28;20186;-81
2021/09/05 00:13:39;;;;;;;1.52;1.10;;;19.50;47.20;;;;;;5038365;28;20222;-82
2021/09/05 00:16:07;;;;;;;1.30;1.20;;;19.50;47.20;;;;;;5039074;28;20193;-82
2021/09/05 00:18:35;;;;;;;1.65;1.15;;;19.50;47.30;;;;;;5055104;28;20190;-83
2021/09/05 00:21:10;;;;;;;1.70;1.30;;;19.50;47.30;;;;;;5038700;28;20256;-83
2021/09/05 00:23:40;;;;;;;1.58;1.30;;;19.50;47.30;;;;;;5054580;28;20245;-82
2021/09/05 00:26:07;;;;;;;1.40;1.30;;;19.50;47.30;;;;;;5055159;28;20206;-81
2021/09/05 00:28:35;;;;;;;1.63;1.20;;;19.50;47.20;;;;;;5055600;28;20281;-82
2021/09/05 00:31:03;;;;;;;2.17;1.20;;;19.50;47.30;;;;;;5055388;28;20185;-81
2021/09/05 00:33:30;;;;;;;1.60;1.40;;;19.50;47.30;;;;;;5038608;28;20175;-83
2021/09/05 00:35:57;;;;;;;1.58;1.23;;;19.50;47.20;;;;;;5055187;28;20656;-81
2021/09/05 00:38:27;;;;;;;1.35;1.23;;;19.50;47.30;;;;;;5039054;28;20187;-82
2021/09/05 00:40:54;;;;;;;1.90;1.20;;;19.40;47.30;;;;;;5071328;28;20183;-84
2021/09/05 00:43:24;;;;;;;1.38;1.27;;;19.40;47.30;;;;;;5071844;28;20185;-82
2021/09/05 00:45:51;;;;;;;1.55;1.20;;;19.40;47.30;;;;;;5055348;28;20178;-81
2021/09/05 00:48:16;;;;;;;1.30;1.20;;;19.40;47.30;;;;;;5041491;28;20170;-82
2021/09/05 00:50:43;;;;;;;1.30;1.20;;;19.40;47.30;;;;;;5039622;28;20162;-83
2021/09/05 00:53:09;;;;;;;2.05;1.35;;;19.40;47.30;;;;;;5055709;28;20158;-82
2021/09/05 00:55:38;;;;;;;1.63;1.20;;;19.40;47.30;;;;;;5039054;28;20171;-84
2021/09/05 00:58:06;;;;;;;1.35;1.20;;;19.40;47.30;;;;;;5039633;28;20194;-82
2021/09/05 01:00:37;;;;;;;1.80;1.30;;;19.40;47.30;;;;;;5038769;28;20190;-82
2021/09/05 01:03:08;;;;;;;1.35;1.08;;;19.40;47.40;;;;;;5054613;28;20406;-81
2021/09/05 01:05:34;;;;;;;1.73;1.35;;;19.40;47.40;;;;;;5054395;28;20194;-81
2021/09/05 01:08:00;;;;;;;1.30;1.20;;;19.40;47.40;;;;;;5054827;28;20257;-81
2021/09/05 01:10:26;;;;;;;1.65;1.38;;;19.30;47.40;;;;;;5055052;28;20155;-83
2021/09/05 01:12:52;;;;;;;1.63;1.15;;;19.40;47.40;;;;;;5055294;28;20222;-82
2021/09/05 01:15:17;;;;;;;1.80;1.13;;;19.30;47.30;;;;;;5054735;28;20151;-83
2021/09/05 01:17:44;;;;;;;1.42;1.20;;;19.30;47.40;;;;;;5039437;28;20251;-82
2021/09/05 01:20:10;;;;;;;1.95;1.40;;;19.30;47.40;;;;;;5038661;28;20194;-82
2021/09/05 01:22:38;;;;;;;1.20;1.10;;;19.40;47.50;;;;;;5038297;28;20645;-82
2021/09/05 01:25:04;;;;;;;2.00;1.25;;;19.30;47.40;;;;;;5054840;28;20178;-85
2021/09/05 01:27:29;;;;;;;1.73;1.23;;;19.40;47.50;;;;;;5054110;28;20610;-82
2021/09/05 01:29:55;;;;;;;1.27;1.17;;;19.40;47.40;;;;;;5038389;28;20171;-81
2021/09/05 01:32:21;;;;;;;1.45;1.30;;;19.30;47.40;;;;;;5037660;28;20225;-82
2021/09/05 01:34:46;;;;;;;1.33;1.10;;;19.40;47.50;;;;;;5054919;28;20192;-83
2021/09/05 01:37:14;;;;;;;1.67;1.42;;;19.40;47.40;;;;;;5054619;28;20190;-82
2021/09/05 01:39:40;;;;;;;1.42;1.10;;;19.40;47.40;;;;;;5054519;28;20163;-82
2021/09/05 01:42:06;;;;;;;1.45;1.17;;;19.40;47.40;;;;;;5037812;28;20189;-83
2021/09/05 01:44:32;;;;;;;1.52;1.27;;;19.30;47.40;;;;;;5054551;28;20150;-82
2021/09/05 01:47:02;;;;;;;2.08;1.20;;;19.30;47.40;;;;;;5037958;28;20611;-82
2021/09/05 01:49:29;;;;;;;1.50;1.20;;;19.40;47.50;;;;;;5070665;28;20221;-83
2021/09/05 01:51:56;;;;;;;1.65;1.30;;;19.30;47.50;;;;;;5036950;28;20197;-82
2021/09/05 01:54:24;;;;;;;1.20;1.10;;;19.30;47.50;;;;;;5053812;28;20186;-81
2021/09/05 01:56:49;;;;;;;1.58;1.25;;;19.30;47.60;;;;;;5069590;28;20232;-84
2021/09/05 01:59:17;;;;;;;2.45;1.40;;;19.30;47.50;;;;;;5037929;28;20622;-82
2021/09/05 02:01:42;;;;;;;1.67;1.40;;;19.30;47.50;;;;;;5037438;28;20258;-83
2021/09/05 02:04:08;;;;;;;1.55;1.38;;;19.30;47.50;;;;;;5055213;28;20209;-82
2021/09/05 02:06:34;;;;;;;1.77;1.40;;;19.30;47.50;;;;;;5054046;28;20644;-84
2021/09/05 02:08:59;;;;;;;1.30;1.20;;;19.30;47.50;;;;;;5038088;28;20174;-82
2021/09/05 02:11:25;;;;;;;1.85;1.33;;;19.30;47.50;;;;;;5054217;28;20166;-82
2021/09/05 02:13:51;;;;;;;1.25;1.15;;;19.20;47.50;;;;;;5054224;28;20297;-83
2021/09/05 02:16:17;;;;;;;1.38;1.25;;;19.30;47.50;;;;;;5037268;28;20209;-81
2021/09/05 02:18:47;;;;;;;1.60;1.38;;;19.30;47.50;;;;;;5053886;28;20159;-85
2021/09/05 02:21:19;;;;;;;2.28;1.40;;;19.30;47.60;;;;;;5052971;28;20183;-84
2021/09/05 02:23:45;;;;;;;1.48;1.10;;;19.30;47.60;;;;;;5052960;28;20638;-84
2021/09/05 02:26:15;;;;;;;1.83;1.20;;;19.30;47.60;;;;;;5037327;28;20181;-83
2021/09/05 02:28:41;;;;;;;1.40;1.20;;;19.30;47.60;;;;;;5053099;28;20194;-82
2021/09/05 02:31:12;;;;;;;1.52;1.30;;;19.30;47.60;;;;;;5039755;28;20158;-81
2021/09/05 02:33:38;;;;;;;1.85;1.42;;;19.20;47.60;;;;;;5070477;28;20186;-84
2021/09/05 02:36:04;;;;;;;2.10;1.58;;;19.30;47.60;;;;;;5054050;28;20175;-83
2021/09/05 02:38:30;;;;;;;1.73;1.23;;;19.30;47.60;;;;;;5054004;28;20247;-82
2021/09/05 02:40:59;;;;;;;1.88;1.25;;;19.30;47.70;;;;;;5038476;28;20174;-82
2021/09/05 02:43:32;;;;;;;1.50;1.30;;;19.30;47.60;;;;;;5036739;28;20183;-81
2021/09/05 02:45:58;;;;;;;1.50;1.27;;;19.30;47.70;;;;;;5072078;28;20701;-83
2021/09/05 02:48:25;;;;;;;1.45;1.20;;;19.30;47.70;;;;;;5041485;28;20190;-84
2021/09/05 02:50:51;;;;;;;1.40;1.20;;;19.30;47.70;;;;;;5040581;28;20174;-82
2021/09/05 02:53:16;;;;;;;1.50;1.30;;;19.30;47.70;;;;;;5057573;28;20151;-81
2021/09/05 02:55:42;;;;;;;1.30;1.20;;;19.30;47.70;;;;;;5057292;28;20157;-84
2021/09/05 02:58:08;;;;;;;1.40;1.10;;;19.30;47.70;;;;;;5040453;28;20202;-82
2021/09/05 03:00:34;;;;;;;1.63;1.38;;;19.30;47.70;;;;;;5040518;28;20190;-82
2021/09/05 03:03:00;;;;;;;1.30;1.20;;;19.30;47.80;;;;;;5057265;28;20147;-82
2021/09/05 03:05:27;;;;;;;1.23;1.13;;;19.20;47.70;;;;;;5056460;28;20282;-82
2021/09/05 03:07:52;;;;;;;1.35;1.23;;;19.20;47.70;;;;;;5056308;28;20170;-82
2021/09/05 03:10:18;;;;;;;1.85;1.30;;;19.20;47.70;;;;;;5056709;28;20158;-81
2021/09/05 03:12:44;;;;;;;1.83;1.08;;;19.20;47.70;;;;;;5056442;28;20743;-82
2021/09/05 03:15:13;;;;;;;1.48;1.20;;;19.20;47.70;;;;;;5039789;28;20234;-81
2021/09/05 03:17:42;;;;;;;1.27;1.17;;;19.30;47.80;;;;;;5055956;28;20210;-81
2021/09/05 03:20:08;;;;;;;1.73;1.02;;;19.30;47.80;;;;;;5072365;28;20274;-82
2021/09/05 03:22:38;;;;;;;2.03;1.48;;;19.30;47.80;;;;;;5039894;28;20182;-83
2021/09/05 03:25:07;;;;;;;1.55;1.30;;;19.20;47.80;;;;;;5039230;28;20179;-82
2021/09/05 03:27:36;;;;;;;1.52;1.30;;;19.30;47.80;;;;;;5038239;28;20649;-82
2021/09/05 03:30:06;;;;;;;1.20;1.10;;;19.20;47.80;;;;;;5055862;28;20198;-84
2021/09/05 03:32:35;;;;;;;2.00;1.23;;;19.20;47.80;;;;;;5072102;28;20189;-84
2021/09/05 03:35:04;;;;;;;2.97;1.35;;;19.20;47.80;;;;;;5038432;28;20193;-82
2021/09/05 03:37:34;;;;;;;1.98;1.20;;;19.30;47.80;;;;;;5055950;28;20218;-81
2021/09/05 03:40:04;;;;;;;1.95;1.15;;;19.20;47.80;;;;;;5072826;28;20189;-81
2021/09/05 03:42:32;;;;;;;1.30;1.20;;;19.20;47.80;;;;;;5055526;28;20642;-82
2021/09/05 03:45:01;;;;;;;1.48;1.23;;;19.20;47.80;;;;;;5072379;28;20215;-84
2021/09/05 03:47:29;;;;;;;2.03;1.17;;;19.20;47.80;;;;;;5073304;28;20197;-82
2021/09/05 03:49:59;;;;;;;1.55;1.30;;;19.20;47.80;;;;;;5055573;28;20186;-82
2021/09/05 03:52:28;;;;;;;2.90;1.60;;;19.20;47.80;;;;;;5038655;28;20236;-82
2021/09/05 03:54:56;;;;;;;1.13;1.00;;;19.20;47.80;;;;;;5054588;28;20190;-82
2021/09/05 03:57:21;;;;;;;2.35;1.30;;;19.20;47.80;;;;;;5037583;28;20742;-82
2021/09/05 03:59:47;;;;;;;1.27;1.05;;;19.20;47.80;;;;;;5056566;28;20155;-82
2021/09/05 04:02:14;;;;;;;1.45;1.27;;;19.20;47.90;;;;;;5038930;28;20269;-82
2021/09/05 04:04:41;;;;;;;1.30;1.20;;;19.20;47.80;;;;;;5071192;28;20187;-82
2021/09/05 04:07:14;;;;;;;1.45;1.17;;;19.20;47.90;;;;;;5070724;28;20213;-81
2021/09/05 04:12:21;;;;;;;2.03;1.60;;;19.20;47.90;;;;;;5066922;28;20195;-82
2021/09/05 04:14:47;;;;;;;1.83;1.35;;;19.20;47.90;;;;;;5039089;28;20277;-81
2021/09/05 04:17:14;;;;;;;1.30;1.10;;;19.20;47.90;;;;;;5037174;28;20235;-84
2021/09/05 04:19:43;;;;;;;1.40;1.30;;;19.10;47.90;;;;;;5070632;28;20289;-82
2021/09/05 04:22:10;;;;;;;1.33;1.05;;;19.20;48.60;;;;;;5055776;28;20162;-82
2021/09/05 04:24:36;;;;;;;1.98;1.30;;;19.10;47.90;;;;;;5038087;28;20221;-84
2021/09/05 04:27:03;;;;;;;1.35;1.10;;;19.20;48.60;;;;;;5038618;28;20163;-82
2021/09/05 04:29:31;;;;;;;1.33;1.20;;;19.10;47.90;;;;;;5055408;28;20155;-82
2021/09/05 04:31:57;;;;;;;1.20;1.10;;;19.20;48.00;;;;;;5054885;28;20515;-83
2021/09/05 04:34:23;;;;;;;1.98;1.40;;;19.10;47.90;;;;;;5038763;28;20167;-82
2021/09/05 04:36:49;;;;;;;1.42;1.30;;;19.20;47.90;;;;;;5038590;28;20187;-81
2021/09/05 04:39:14;;;;;;;1.50;1.08;;;19.10;47.90;;;;;;5055406;28;20568;-82
2021/09/05 04:41:40;;;;;;;1.83;1.52;;;19.20;48.00;;;;;;5038960;28;20159;-82
2021/09/05 04:44:06;;;;;;;2.88;1.27;;;19.20;48.00;;;;;;5055382;28;20155;-83
2021/09/05 04:46:32;;;;;;;1.83;1.42;;;19.20;48.00;;;;;;5060326;28;20158;-81
2021/09/05 04:48:57;;;;;;;1.70;1.15;;;19.20;48.00;;;;;;5041243;28;20163;-81
2021/09/05 04:51:26;;;;;;;1.20;1.10;;;19.20;48.00;;;;;;5058827;28;20606;-82
2021/09/05 04:53:54;;;;;;;1.65;1.27;;;19.20;48.00;;;;;;5041991;28;20163;-81
2021/09/05 04:56:21;;;;;;;1.40;1.20;;;19.20;47.90;;;;;;5062199;28;20172;-80
2021/09/05 04:58:50;;;;;;;1.25;1.10;;;19.20;48.00;;;;;;5058899;28;20545;-83
2021/09/05 05:01:20;;;;;;;1.20;1.10;;;19.20;47.90;;;;;;5053204;28;20244;-82
2021/09/05 05:03:49;;;;;;;1.55;1.20;;;19.20;48.00;;;;;;5069424;28;20232;-84
2021/09/05 05:06:15;;;;;;;1.95;1.30;;;19.10;47.90;;;;;;5053209;28;20178;-84
2021/09/05 05:08:41;;;;;;;1.58;1.30;;;19.20;47.90;;;;;;5053720;28;20212;-82
2021/09/05 05:11:12;;;;;;;1.95;1.27;;;19.20;48.00;;;;;;5037632;28;20166;-82
2021/09/05 05:13:40;;;;;;;2.15;1.42;;;19.20;47.90;;;;;;5053550;28;20267;-83
2021/09/05 05:16:09;;;;;;;1.88;1.20;;;19.20;47.90;;;;;;5069597;28;20241;-82
2021/09/05 05:18:34;;;;;;;1.40;1.27;;;19.20;48.00;;;;;;5035902;28;20591;-83
2021/09/05 05:21:00;;;;;;;2.22;1.35;;;19.20;48.00;;;;;;5036567;28;20174;-82
2021/09/05 05:23:29;;;;;;;1.30;1.17;;;19.20;48.00;;;;;;5053381;28;20174;-83
2021/09/05 05:25:56;;;;;;;1.38;1.23;;;19.20;48.00;;;;;;5037390;28;20170;-83
2021/09/05 05:28:24;;;;;;;1.77;1.10;;;19.10;48.00;;;;;;5052284;28;20173;-82
2021/09/05 05:30:51;;;;;;;1.80;1.30;;;19.10;48.10;;;;;;5050112;28;20186;-84
2021/09/05 05:33:18;;;;;;;1.20;1.10;;;19.20;48.10;;;;;;5033241;28;20269;-83
2021/09/05 05:35:45;;;;;;;1.40;1.20;;;19.20;48.10;;;;;;5066651;28;20186;-83
2021/09/05 05:38:15;;;;;;;2.00;1.40;;;19.20;48.10;;;;;;5049943;28;20279;-82
2021/09/05 05:40:42;;;;;;;2.08;1.33;;;19.10;48.00;;;;;;5050203;28;20190;-82
2021/09/05 05:43:12;;;;;;;1.58;1.38;;;19.20;48.10;;;;;;5067614;28;20178;-82
2021/09/05 05:45:39;;;;;;;1.70;1.40;;;19.20;48.00;;;;;;5052244;28;20687;-83
2021/09/05 05:48:06;;;;;;;1.63;1.40;;;19.20;48.10;;;;;;5051830;28;20198;-82
2021/09/05 05:50:33;;;;;;;1.52;1.42;;;19.10;48.00;;;;;;5068654;28;20224;-82
2021/09/05 05:53:00;;;;;;;1.40;1.23;;;19.10;48.10;;;;;;5035504;28;20178;-82
2021/09/05 05:55:26;;;;;;;1.70;1.30;;;19.10;48.10;;;;;;5068871;28;20190;-82
2021/09/05 05:57:52;;;;;;;1.55;1.20;;;19.10;48.10;;;;;;5036155;28;20202;-83
2021/09/05 06:00:19;;;;;;;1.42;1.20;;;19.10;48.20;;;;;;5052535;28;20170;-83
2021/09/05 06:02:45;;;;;;;1.75;1.20;;;19.10;48.70;;;;;;5052540;28;20150;-84
2021/09/05 06:05:12;;;;;;;1.83;1.40;;;19.10;48.10;;;;;;5035362;28;20222;-84
2021/09/05 06:07:37;;;;;;;1.40;1.10;;;19.10;48.10;;;;;;5035868;28;20185;-83
2021/09/05 06:10:03;;;;;;;1.30;1.20;;;19.10;48.10;;;;;;5052351;28;20166;-83
2021/09/05 06:12:29;;;;;;;1.42;1.20;;;19.10;48.10;;;;;;5053769;28;20219;-83
2021/09/05 06:14:55;;;;;;;1.60;1.30;;;19.10;48.10;;;;;;5052950;28;20160;-81
2021/09/05 06:17:22;;;;;;;1.50;1.20;;;19.10;48.10;;;;;;5052648;28;20207;-84
2021/09/05 06:19:47;;;;;;;1.50;1.30;;;19.10;48.20;;;;;;5054611;28;20146;-83
2021/09/05 06:22:13;;;;;;;2.13;1.20;;;19.10;48.10;;;;;;5056513;28;20264;-83
2021/09/05 06:24:39;;;;;;;1.75;1.35;;;19.20;48.20;;;;;;5056522;28;20228;-84
2021/09/05 06:27:06;;;;;;;1.92;1.23;;;19.10;48.20;;;;;;5058012;28;20219;-83
2021/09/05 06:29:33;;;;;;;2.13;1.55;;;19.20;48.20;;;;;;5040527;28;20265;-82
2021/09/05 06:31:58;;;;;;;1.25;1.15;;;19.20;48.20;;;;;;5056411;28;20208;-83
2021/09/05 06:34:24;;;;;;;1.63;1.35;;;19.20;48.20;;;;;;5056596;28;20162;-82
2021/09/05 06:36:50;;;;;;;1.00;0.90;;;19.20;48.20;;;;;;5039513;28;20319;-84
2021/09/05 06:39:16;;;;;;;1.58;1.40;;;19.10;48.10;;;;;;5056206;28;20237;-83
2021/09/05 06:41:42;;;;;;;2.72;1.38;;;19.20;48.20;;;;;;5057642;28;20154;-82
2021/09/05 06:44:08;;;;;;;1.80;1.35;;;19.10;48.20;;;;;;5040222;28;20169;-83
2021/09/05 06:46:34;;;;;;;1.77;1.58;;;19.20;48.20;;;;;;5056442;28;20636;-83
2021/09/05 06:49:00;;;;;;;1.70;1.10;;;19.20;48.20;;;;;;5056710;28;20162;-82
2021/09/05 06:51:25;;;;;;;1.30;1.15;;;19.20;48.20;;;;;;5039838;28;20256;-84
2021/09/05 06:53:51;;;;;;;1.67;1.20;;;19.10;48.10;;;;;;5057872;28;20639;-83
2021/09/05 06:56:17;;;;;;;2.05;1.38;;;19.20;48.30;;;;;;5056215;28;20616;-83
2021/09/05 06:58:43;;;;;;;1.77;1.25;;;19.20;48.20;;;;;;5056302;28;20154;-84
2021/09/05 07:01:08;;;;;;;1.70;1.20;;;19.20;48.20;;;;;;5055936;28;20155;-83
2021/09/05 07:03:34;;;;;;;1.40;1.30;;;19.10;48.20;;;;;;5055337;28;20613;-82
2021/09/05 07:06:00;;;;;;;1.92;1.30;;;19.20;48.20;;;;;;5039434;28;20538;-82
2021/09/05 07:08:25;;;;;;;1.35;1.00;;;19.20;48.20;;;;;;5055572;28;20164;-82
2021/09/05 07:10:51;;;;;;;1.70;1.20;;;19.10;48.10;;;;;;5039317;28;20219;-84
2021/09/05 07:13:17;;;;;;;1.20;1.10;;;19.20;48.20;;;;;;5055463;28;20227;-82
2021/09/05 07:15:42;;;;;;;1.13;1.00;;;19.20;48.20;;;;;;5057319;28;20268;-83
2021/09/05 07:18:08;;;;;;;1.77;1.27;;;19.20;48.30;;;;;;5039163;28;20190;-84
2021/09/05 07:20:34;;;;;;;2.05;1.20;;;19.10;48.20;;;;;;5056806;28;20166;-85
2021/09/05 07:23:00;;;;;;;1.20;1.10;;;19.20;48.20;;;;;;5059632;28;20566;-84
2021/09/05 07:25:26;;;;;;;1.30;1.00;;;19.20;48.30;;;;;;5059178;28;20628;-84
2021/09/05 07:27:52;;;;;;;1.73;1.15;;;19.20;48.30;;;;;;5076802;28;20237;-82
2021/09/05 07:30:19;;;;;;;1.67;1.20;;;19.20;48.30;;;;;;5075777;28;20651;-82
2021/09/05 07:32:45;;;;;;;1.02;1.02;;;19.20;48.30;;;;;;5042671;28;20219;-83
2021/09/05 07:35:10;;;;;;;1.38;1.20;;;19.20;48.30;;;;;;5075305;28;20173;-82
2021/09/05 07:37:36;;;;;;;2.58;1.27;;;19.20;48.40;;;;;;5057934;28;20196;-82
2021/09/05 07:40:04;;;;;;;1.30;1.10;;;19.20;48.20;;;;;;5074455;28;20541;-81
2021/09/05 07:42:30;;;;;;;1.27;1.17;;;19.20;48.30;;;;;;5074567;28;20150;-82
2021/09/05 07:44:58;;;;;;;1.10;1.00;;;19.10;48.20;;;;;;5074468;28;20165;-82
2021/09/05 07:47:24;;;;;;;2.15;1.30;;;19.20;48.30;;;;;;5058653;28;20215;-82
2021/09/05 07:49:49;;;;;;;2.00;1.20;;;19.10;48.30;;;;;;5058259;28;20161;-83
2021/09/05 07:52:18;;;;;;;1.50;1.00;;;19.10;48.20;;;;;;5076801;28;20640;-82
2021/09/05 07:54:47;;;;;;;2.45;1.50;;;19.20;48.30;;;;;;5040414;28;20189;-81
2021/09/05 07:57:17;;;;;;;1.67;1.15;;;19.20;48.30;;;;;;5040667;28;20201;-84
2021/09/05 07:59:46;;;;;;;1.27;1.10;;;19.20;48.20;;;;;;5056974;28;20189;-82
2021/09/05 08:02:14;;;;;;;1.83;1.35;;;19.20;48.20;;;;;;5074714;28;20146;-81
2021/09/05 08:04:43;;;;;;;2.13;1.35;;;19.20;48.30;;;;;;5073911;28;20185;-83
2021/09/05 08:07:12;;;;;;;1.63;1.15;;;19.20;48.30;;;;;;5073751;28;20185;-83
2021/09/05 08:09:41;;;;;;;1.10;1.00;;;19.20;48.20;;;;;;5073916;28;20189;-82
2021/09/05 08:12:07;;;;;;;2.35;1.20;;;19.20;48.20;;;;;;5040816;28;20180;-83
2021/09/05 08:14:34;;;;;;;1.40;1.30;;;19.20;48.20;;;;;;5058909;28;20173;-81
2021/09/05 08:17:00;;;;;;;1.45;1.20;;;19.20;48.20;;;;;;5076508;28;20177;-82
2021/09/05 08:19:25;;;;;;;1.20;1.10;;;19.20;48.30;;;;;;5063544;28;20166;-82
2021/09/05 08:21:51;;;;;;;1.58;1.10;;;19.30;48.20;;;;;;5055844;28;20574;-82
2021/09/05 08:24:18;;;;;;;1.67;1.15;;;19.30;48.30;;;;;;5054315;28;20162;-83
2021/09/05 08:26:44;;;;;;;3.10;1.50;;;19.30;48.20;;;;;;5021471;28;20268;-83
2021/09/05 08:29:10;;;;;;;1.17;1.08;;;19.30;48.30;;;;;;5054017;28;20245;-82
2021/09/05 08:31:36;;;;;;;2.20;1.27;;;19.30;48.30;;;;;;5055244;28;20651;-84
2021/09/05 08:34:02;;;;;;;1.60;1.20;;;19.20;48.20;;;;;;5053720;28;20162;-81
2021/09/05 08:36:28;;;;;;;1.98;1.30;;;19.30;48.30;;;;;;5053496;28;20158;-82
2021/09/05 08:38:58;;;;;;;3.00;1.40;;;19.30;48.90;;;;;;5053215;28;20658;-83
2021/09/05 08:41:24;;;;;;;1.27;1.17;;;19.40;48.20;;;;;;5036195;28;20817;-83
2021/09/05 08:43:50;;;;;;;1.20;1.10;;;19.40;48.10;;;;;;5036599;28;20543;-83
2021/09/05 08:46:17;;;;;;;2.10;1.40;;;19.40;48.20;;;;;;5053476;28;20620;-83
2021/09/05 08:48:44;;;;;;;1.67;1.30;;;19.30;48.20;;;;;;5037192;28;20586;-82
2021/09/05 08:51:12;;;;;;;2.33;1.38;;;19.30;48.20;;;;;;5055545;28;20237;-83
2021/09/05 08:53:38;;;;;;;2.10;1.25;;;19.30;48.20;;;;;;5054559;28;20229;-84
2021/09/05 08:56:15;;;;;;;1.88;1.15;;;19.40;48.20;;;;;;5021689;28;20200;-82
2021/09/05 08:58:41;;;;;;;3.38;1.40;;;19.30;48.10;;;;;;5054361;28;20223;-84
2021/09/05 09:01:29;;;;;;;1.52;1.30;;;19.40;48.30;;;;;;5037260;28;20613;-82
2021/09/05 09:04:12;;;;;;;1.38;1.08;;;19.40;48.10;;;;;;5055387;28;20569;-85
2021/09/05 09:06:39;;;;;;;1.23;1.05;;;19.40;48.30;;;;;;5038654;28;20215;-81
2021/09/05 09:09:11;;;;;;;1.75;1.20;;;19.40;48.20;;;;;;5021792;28;20261;-84
2021/09/05 09:11:55;;;;;;;2.65;1.50;;;19.40;48.30;;;;;;5054878;28;20158;-84
2021/09/05 09:14:42;;;;;;;2.70;1.38;;;19.40;48.20;;;;;;5053657;28;20218;-83
2021/09/05 09:17:09;;;;;;;2.00;1.23;;;19.40;48.00;;;;;;5038741;28;20652;-81
2021/09/05 09:19:36;;;;;;;1.60;1.30;;;19.40;48.10;;;;;;5055181;28;20200;-83
2021/09/05 09:22:12;;;;;;;1.30;1.10;;;19.40;48.20;;;;;;5053309;28;20147;-83
2021/09/05 09:24:40;;;;;;;2.00;1.40;;;19.40;48.00;;;;;;5023180;28;20537;-83
2021/09/05 09:27:11;;;;;;;1.33;1.20;;;19.40;48.00;;;;;;5021194;28;20174;-84
2021/09/05 09:29:37;;;;;;;2.03;1.20;;;19.50;48.10;;;;;;5037731;28;20161;-81
2021/09/05 09:32:08;;;;;;;1.63;1.20;;;19.50;48.10;;;;;;5040910;28;20166;-81
2021/09/05 09:34:41;;;;;;;2.15;1.20;;;19.50;48.10;;;;;;5046043;28;20177;-81
2021/09/05 09:37:14;;;;;;;2.33;1.40;;;19.40;48.00;;;;;;5061526;28;20178;-81
2021/09/05 09:39:52;;;;;;;2.25;1.40;;;19.50;48.00;;;;;;5041545;28;20171;-82
2021/09/05 09:42:36;;;;;;;1.88;1.40;;;19.50;48.00;;;;;;5024862;28;20163;-81
2021/09/05 09:45:10;;;;;;;2.92;1.10;;;19.60;48.00;;;;;;5042446;28;20173;-80
2021/09/05 09:47:48;;;;;;;1.90;1.40;;;19.50;48.10;;;;;;5009020;28;20170;-81
2021/09/05 09:50:15;;;;;;;1.80;1.30;;;19.60;48.00;;;;;;5041891;28;20281;-82
2021/09/05 09:52:48;;;;;;;1.85;1.35;;;19.40;48.10;;;;;;5009140;28;20549;-81
2021/09/05 09:55:14;;;;;;;1.50;1.20;;;19.50;48.00;;;;;;5041292;28;20155;-81
2021/09/05 09:57:43;;;;;;;1.92;1.38;;;19.50;48.00;;;;;;5047853;28;20215;-81
2021/09/05 10:00:10;;;;;;;1.73;1.15;;;19.50;48.00;;;;;;5064022;28;20637;-81
2021/09/05 10:02:38;;;;;;;2.20;1.38;;;19.50;47.90;;;;;;5045549;28;20155;-81
2021/09/05 10:05:05;;;;;;;2.65;1.35;;;19.50;48.00;;;;;;5029387;28;20624;-81
2021/09/05 10:07:33;;;;;;;2.30;1.30;;;19.50;48.60;;;;;;5044549;28;20170;-81
2021/09/05 10:10:01;;;;;;;1.67;1.40;;;19.50;48.00;;;;;;5020125;28;20189;-80
2021/09/05 10:12:26;;;;;;;1.42;1.30;;;19.50;48.00;;;;;;5062704;28;20229;-80
2021/09/05 10:14:54;;;;;;;1.88;1.02;;;19.50;48.00;;;;;;5065260;28;20588;-82
2021/09/05 10:17:21;;;;;;;1.92;1.40;;;19.60;48.00;;;;;;5066215;28;20185;-80
2021/09/05 10:19:48;;;;;;;1.85;1.20;;;19.50;48.00;;;;;;5082600;28;20149;-81
2021/09/05 10:22:21;;;;;;;2.75;1.10;;;19.60;47.90;;;;;;5066418;28;20192;-82
2021/09/05 10:24:48;;;;;;;1.27;1.02;;;19.60;48.00;;;;;;5082828;28;20166;-81
2021/09/05 10:27:14;;;;;;;3.17;1.40;;;19.60;48.00;;;;;;5051192;28;20237;-81
2021/09/05 10:30:13;;;;;;;1.70;1.33;;;19.50;47.90;;;;;;5083449;28;20188;-81
2021/09/05 10:32:53;;;;;;;3.75;1.65;;;19.50;47.80;;;;;;5082696;28;20173;-81
2021/09/05 10:35:47;;;;;;;2.00;1.20;;;19.60;47.90;;;;;;5046732;28;20547;-81
2021/09/05 10:38:25;;;;;;;1.50;1.38;;;19.60;47.80;;;;;;5062743;28;20185;-82
2021/09/05 10:40:56;;;;;;;1.40;1.30;;;19.60;47.70;;;;;;5061746;28;20521;-81
2021/09/05 10:43:22;;;;;;;1.52;1.13;;;19.60;47.70;;;;;;5029456;28;20249;-81
2021/09/05 10:45:54;;;;;;;2.08;1.50;;;19.70;47.60;;;;;;5045714;28;20155;-80
2021/09/05 10:48:36;;;;;;;2.03;1.30;;;19.60;47.50;;;;;;5042260;28;20170;-80
2021/09/05 10:51:11;;;;;;;2.22;1.20;;;19.60;47.60;;;;;;5054390;28;20216;-81
2021/09/05 10:53:55;;;;;;;2.20;1.50;;;19.70;47.60;;;;;;5060939;28;20188;-81
2021/09/05 10:56:24;;;;;;;1.83;1.40;;;19.60;47.70;;;;;;5061541;28;20158;-81
2021/09/05 10:59:03;;;;;;;2.63;1.30;;;19.60;47.70;;;;;;5061217;28;20245;-80
2021/09/05 11:01:56;;;;;;;1.55;1.25;;;19.60;47.80;;;;;;5062531;28;20158;-81
2021/09/05 11:04:39;;;;;;;1.98;1.30;;;19.60;47.70;;;;;;5031646;28;20182;-82
2021/09/05 11:07:33;;;;;;;1.45;1.20;;;19.60;47.70;;;;;;5048759;28;20177;-82
2021/09/05 11:10:01;;;;;;;1.70;1.20;;;19.70;47.70;;;;;;5047432;28;20623;-82
2021/09/05 11:12:35;;;;;;;1.67;1.17;;;19.70;47.70;;;;;;5064608;28;20206;-82
2021/09/05 11:15:02;;;;;;;2.20;1.33;;;19.70;47.60;;;;;;5064093;28;20169;-80
2021/09/05 11:17:30;;;;;;;2.25;1.33;;;19.70;47.60;;;;;;5064272;28;20242;-81
2021/09/05 11:20:03;;;;;;;1.40;1.30;;;19.60;47.60;;;;;;5064253;28;20151;-80
2021/09/05 11:22:31;;;;;;;1.40;1.10;;;19.70;47.60;;;;;;5047945;28;20153;-80
2021/09/05 11:25:20;;;;;;;1.70;1.30;;;19.70;47.60;;;;;;5046530;28;20170;-81
2021/09/05 11:28:02;;;;;;;1.20;1.10;;;19.70;47.50;;;;;;5063407;28;20617;-81
2021/09/05 11:30:31;;;;;;;1.52;1.20;;;19.70;48.20;;;;;;5046902;28;20180;-81
2021/09/05 11:33:01;;;;;;;1.80;1.20;;;19.80;47.60;;;;;;5064093;28;20636;-82
2021/09/05 11:35:32;;;;;;;1.35;1.25;;;19.80;47.50;;;;;;5047639;28;20620;-81
2021/09/05 11:37:58;;;;;;;2.17;1.38;;;19.80;47.50;;;;;;5048764;28;20198;-81
2021/09/05 11:40:25;;;;;;;1.90;1.17;;;19.80;47.50;;;;;;5044901;28;20197;-82
2021/09/05 11:42:54;;;;;;;2.28;1.23;;;19.80;47.50;;;;;;5044225;28;20151;-80
2021/09/05 11:45:22;;;;;;;2.47;1.40;;;19.70;47.50;;;;;;5028140;28;20173;-81
2021/09/05 11:47:57;;;;;;;1.38;1.17;;;19.80;47.50;;;;;;5043881;28;20174;-83
2021/09/05 11:50:23;;;;;;;2.15;1.20;;;19.80;47.60;;;;;;5048888;28;20169;-81
2021/09/05 11:52:50;;;;;;;1.67;1.30;;;19.70;47.50;;;;;;5062829;28;20168;-80
2021/09/05 11:55:17;;;;;;;2.10;1.10;;;19.80;47.70;;;;;;5047722;28;20610;-82
2021/09/05 11:58:00;;;;;;;1.38;1.17;;;19.80;47.50;;;;;;5031200;28;20200;-81
2021/09/05 12:00:30;;;;;;;1.30;1.20;;;19.80;47.60;;;;;;5030347;28;20158;-81
2021/09/05 12:02:56;;;;;;;1.67;1.30;;;19.80;47.50;;;;;;5064554;28;20158;-81
2021/09/05 12:05:26;;;;;;;1.63;1.23;;;19.80;47.60;;;;;;5061931;28;20169;-80
2021/09/05 12:07:53;;;;;;;1.63;1.30;;;19.80;47.50;;;;;;5083265;28;20185;-80
2021/09/05 12:10:21;;;;;;;2.40;1.10;;;19.80;47.60;;;;;;5084994;28;20240;-79
2021/09/05 12:13:06;;;;;;;2.22;1.30;;;19.80;47.60;;;;;;5066874;28;20281;-80
2021/09/05 12:15:43;;;;;;;1.48;1.30;;;19.70;47.40;;;;;;5038730;28;20635;-80
2021/09/05 12:18:24;;;;;;;1.65;1.38;;;19.80;47.50;;;;;;5083635;28;20220;-81
2021/09/05 12:20:59;;;;;;;1.55;1.20;;;19.80;47.50;;;;;;5067208;28;20628;-80
2021/09/05 12:23:30;;;;;;;2.78;1.60;;;19.80;47.60;;;;;;5050474;28;20185;-80
2021/09/05 12:25:57;;;;;;;1.77;1.30;;;19.80;47.50;;;;;;5084428;28;20154;-80
2021/09/05 12:28:39;;;;;;;3.28;1.45;;;19.80;47.60;;;;;;5068510;28;20169;-80
2021/09/05 12:31:12;;;;;;;1.85;1.38;;;19.80;47.60;;;;;;5067394;28;20165;-80
2021/09/05 12:33:38;;;;;;;1.40;1.27;;;19.90;47.50;;;;;;5084215;28;20169;-81
2021/09/05 12:36:15;;;;;;;1.42;1.15;;;19.80;47.40;;;;;;5067064;28;20161;-80
2021/09/05 12:38:51;;;;;;;1.38;1.15;;;19.90;47.40;;;;;;5067985;28;20181;-82
2021/09/05 12:41:23;;;;;;;1.48;1.35;;;19.80;47.60;;;;;;5067081;28;20169;-79
2021/09/05 12:43:53;;;;;;;1.88;1.00;;;19.80;47.40;;;;;;5066028;28;20640;-80
2021/09/05 12:46:22;;;;;;;1.88;1.23;;;19.90;47.40;;;;;;5080660;28;20153;-83
2021/09/05 12:48:50;;;;;;;1.33;1.10;;;19.90;47.50;;;;;;5045770;28;20150;-81
2021/09/05 12:51:18;;;;;;;1.42;1.25;;;20.00;47.50;;;;;;5045483;28;20170;-80
2021/09/05 12:53:55;;;;;;;1.50;1.20;;;20.00;47.40;;;;;;5060247;28;20157;-80
2021/09/05 12:56:24;;;;;;;1.35;1.20;;;19.90;47.40;;;;;;5060914;28;20204;-82
2021/09/05 12:58:54;;;;;;;1.33;1.20;;;19.90;47.30;;;;;;5061731;28;20501;-80